Time;durP1;ratioP1;P1;durP2;ratioP2;P2;SDS_P1;SDS_P2;PMS_P1;PMS_P2;Temp;Humidity;BMP_temperature;BMP_pressure;BME280_temperature;BME280_humidity;BME280_pressure;Samples;Min_cycle;Max_cycle;Signal;HPM_P1;HPM_P2
2023/09/16 00:01:41;;;;;;;0.40;0.30;;;16.80;99.90;;;;;;5076948;28;20226;-82
2023/09/16 00:04:08;;;;;;;0.40;0.20;;;16.70;99.90;;;;;;5072510;28;20454;-82
2023/09/16 00:06:34;;;;;;;0.40;0.20;;;16.70;99.90;;;;;;5071759;28;20200;-79
2023/09/16 00:09:00;;;;;;;0.40;0.30;;;16.50;99.90;;;;;;5076577;28;20433;-81
2023/09/16 00:11:25;;;;;;;0.40;0.20;;;16.40;99.90;;;;;;5075535;28;20211;-79
2023/09/16 00:13:51;;;;;;;0.40;0.20;;;16.30;99.90;;;;;;5074629;28;20184;-84
2023/09/16 00:16:16;;;;;;;0.40;0.20;;;16.30;99.90;;;;;;5073418;28;20223;-84
2023/09/16 00:18:42;;;;;;;0.50;0.40;;;16.20;99.90;;;;;;5077713;28;20204;-84
2023/09/16 00:21:08;;;;;;;0.40;0.30;;;16.20;99.90;;;;;;5076611;28;20217;-84
2023/09/16 00:23:33;;;;;;;0.40;0.20;;;16.00;99.90;;;;;;5072356;28;20187;-84
2023/09/16 00:25:59;;;;;;;0.40;0.20;;;15.90;99.90;;;;;;5076048;28;20235;-83
2023/09/16 00:28:27;;;;;;;0.60;0.50;;;15.90;99.90;;;;;;5072239;28;20192;-81
2023/09/16 00:30:53;;;;;;;0.40;0.30;;;15.80;99.90;;;;;;5070415;28;20199;-81
2023/09/16 00:33:18;;;;;;;0.40;0.20;;;15.80;99.90;;;;;;5090527;28;20450;-85
2023/09/16 00:35:44;;;;;;;0.40;0.20;;;15.80;99.90;;;;;;5071269;28;20307;-80
2023/09/16 00:38:10;;;;;;;0.40;0.20;;;15.90;99.90;;;;;;5077699;28;20187;-85
2023/09/16 00:40:36;;;;;;;0.40;0.20;;;15.70;99.90;;;;;;5076258;28;20181;-83
2023/09/16 00:43:02;;;;;;;0.40;0.33;;;15.50;99.90;;;;;;5078466;28;20274;-86
2023/09/16 00:45:28;;;;;;;0.40;0.20;;;15.50;99.90;;;;;;5073669;28;20431;-85
2023/09/16 00:47:54;;;;;;;0.40;0.20;;;15.50;99.90;;;;;;5073670;28;21230;-79
2023/09/16 00:50:20;;;;;;;0.40;0.20;;;15.50;99.90;;;;;;5073165;28;20194;-87
2023/09/16 00:52:56;;;;;;;0.40;0.30;;;15.50;99.90;;;;;;5073839;28;20438;-82
2023/09/16 00:55:23;;;;;;;0.40;0.40;;;15.40;99.90;;;;;;5068496;28;20469;-84
2023/09/16 00:57:52;;;;;;;0.40;0.30;;;15.30;99.90;;;;;;5071057;28;20502;-84
2023/09/16 01:00:19;;;;;;;0.40;0.20;;;15.30;99.90;;;;;;5066005;28;20438;-79
2023/09/16 01:02:44;;;;;;;0.40;0.20;;;15.30;99.90;;;;;;5072736;28;20502;-84
2023/09/16 01:05:17;;;;;;;0.40;0.20;;;15.30;99.90;;;;;;5069510;28;20684;-77
2023/09/16 01:07:45;;;;;;;0.40;0.20;;;15.30;99.90;;;;;;5069612;28;20203;-84
2023/09/16 01:10:13;;;;;;;0.40;0.30;;;15.30;99.90;;;;;;5070202;28;20441;-81
2023/09/16 01:12:39;;;;;;;0.40;0.20;;;15.50;99.90;;;;;;5066393;28;20978;-81
2023/09/16 01:15:10;;;;;;;0.40;0.37;;;15.50;99.90;;;;;;5064538;28;20471;-84
2023/09/16 01:17:47;;;;;;;0.40;0.20;;;15.40;99.90;;;;;;5063935;28;20439;-83
2023/09/16 01:20:15;;;;;;;0.40;0.20;;;15.40;99.90;;;;;;5065009;28;20452;-81
2023/09/16 01:22:45;;;;;;;0.40;0.30;;;15.30;99.90;;;;;;5063294;28;20462;-84
2023/09/16 01:25:12;;;;;;;0.40;0.20;;;15.30;99.90;;;;;;5059476;28;20438;-85
2023/09/16 01:27:37;;;;;;;0.50;0.47;;;15.50;99.90;;;;;;5067169;28;20442;-83
2023/09/16 01:30:05;;;;;;;0.40;0.20;;;15.50;99.90;;;;;;5062653;28;20491;-80
2023/09/16 01:33:18;;;;;;;0.40;0.20;;;15.60;99.90;;;;;;5075234;28;20211;-83
2023/09/16 01:35:46;;;;;;;0.40;0.20;;;15.60;99.90;;;;;;5014315;28;20496;-87
2023/09/16 01:38:14;;;;;;;0.67;0.40;;;15.60;99.90;;;;;;5058701;28;20426;-84
2023/09/16 01:40:41;;;;;;;0.40;0.30;;;15.70;99.90;;;;;;5073664;28;20438;-83
2023/09/16 01:43:07;;;;;;;0.40;0.20;;;15.70;99.90;;;;;;5076417;28;20437;-83
2023/09/16 01:45:43;;;;;;;0.40;0.20;;;15.70;99.90;;;;;;5074452;28;20443;-83
2023/09/16 01:48:09;;;;;;;0.40;0.20;;;15.70;99.90;;;;;;5070946;28;20971;-83
2023/09/16 01:50:35;;;;;;;0.40;0.20;;;15.60;99.90;;;;;;5072255;28;21022;-84
2023/09/16 01:53:01;;;;;;;0.40;0.30;;;15.80;99.90;;;;;;5068110;28;20219;-87
2023/09/16 01:55:27;;;;;;;2.43;0.57;;;15.70;99.90;;;;;;5070948;28;20228;-81
2023/09/16 01:57:53;;;;;;;0.40;0.20;;;15.70;99.90;;;;;;5070160;28;20463;-84
2023/09/16 02:00:18;;;;;;;0.40;0.20;;;15.70;99.90;;;;;;5075349;28;20476;-86
2023/09/16 02:02:44;;;;;;;0.40;0.20;;;15.80;99.90;;;;;;5070730;28;20220;-83
2023/09/16 02:05:10;;;;;;;0.40;0.20;;;15.80;99.90;;;;;;5073946;28;20219;-83
2023/09/16 02:07:36;;;;;;;0.40;0.30;;;15.80;99.90;;;;;;5078725;28;20173;-83
2023/09/16 02:10:03;;;;;;;0.40;0.20;;;15.80;99.90;;;;;;5076680;28;20446;-79
2023/09/16 02:12:28;;;;;;;0.40;0.20;;;15.80;99.90;;;;;;5076383;28;20394;-86
2023/09/16 02:14:54;;;;;;;0.60;0.30;;;15.80;99.90;;;;;;5071281;28;20465;-84
2023/09/16 02:17:20;;;;;;;0.40;0.20;;;15.80;99.90;;;;;;5072059;28;20210;-83
2023/09/16 02:19:46;;;;;;;0.40;0.20;;;15.80;99.90;;;;;;5073941;28;20196;-86
2023/09/16 02:22:11;;;;;;;0.40;0.33;;;15.70;99.90;;;;;;5072112;28;20478;-83
2023/09/16 02:24:37;;;;;;;0.40;0.20;;;15.70;99.90;;;;;;5070895;28;20184;-87
2023/09/16 02:27:04;;;;;;;0.40;0.20;;;15.70;99.90;;;;;;5071232;28;20188;-87
2023/09/16 02:29:32;;;;;;;0.50;0.40;;;15.50;99.90;;;;;;5089506;28;20694;-87
2023/09/16 02:31:57;;;;;;;0.40;0.20;;;15.40;99.90;;;;;;5071547;28;20454;-82
2023/09/16 02:34:23;;;;;;;0.40;0.20;;;15.30;99.90;;;;;;5064434;28;20459;-86
2023/09/16 02:36:48;;;;;;;1.03;0.67;;;15.40;99.90;;;;;;5070035;28;21715;-83
2023/09/16 02:39:14;;;;;;;0.40;0.20;;;15.40;99.90;;;;;;5076712;28;20177;-83
2023/09/16 02:41:39;;;;;;;0.40;0.20;;;15.30;99.90;;;;;;5073800;28;20243;-84
2023/09/16 02:44:07;;;;;;;0.40;0.20;;;15.20;99.90;;;;;;5072252;28;21049;-81
2023/09/16 02:46:32;;;;;;;0.40;0.20;;;15.10;99.90;;;;;;5090850;28;20187;-83
2023/09/16 02:48:58;;;;;;;0.40;0.30;;;15.10;99.90;;;;;;5072772;28;21032;-85
2023/09/16 02:51:23;;;;;;;0.40;0.20;;;15.10;99.90;;;;;;5073218;28;20200;-85
2023/09/16 02:53:49;;;;;;;0.40;0.20;;;15.10;99.90;;;;;;5075461;28;20180;-87
2023/09/16 02:56:14;;;;;;;0.40;0.20;;;15.20;99.90;;;;;;5068654;28;20218;-81
2023/09/16 02:58:40;;;;;;;0.40;0.20;;;15.20;99.90;;;;;;5075109;28;20382;-81
2023/09/16 03:01:10;;;;;;;0.40;0.20;;;15.30;99.90;;;;;;5067397;28;20681;-83
2023/09/16 03:03:35;;;;;;;0.40;0.20;;;15.40;99.90;;;;;;5066073;28;20192;-87
2023/09/16 03:06:01;;;;;;;0.40;0.20;;;15.50;99.90;;;;;;5076417;28;20442;-83
2023/09/16 03:08:27;;;;;;;0.40;0.20;;;15.50;99.90;;;;;;5073485;28;20918;-82
2023/09/16 03:10:57;;;;;;;0.40;0.20;;;15.90;99.90;;;;;;5075101;28;20212;-85
2023/09/16 03:13:23;;;;;;;0.40;0.20;;;15.60;99.90;;;;;;5077814;28;20217;-81
2023/09/16 03:16:08;;;;;;;0.40;0.30;;;15.60;99.90;;;;;;5079643;28;20507;-81
2023/09/16 03:18:34;;;;;;;0.40;0.20;;;15.70;99.90;;;;;;5072888;28;20213;-79
2023/09/16 03:20:59;;;;;;;0.40;0.20;;;15.60;99.90;;;;;;5073602;28;20458;-83
2023/09/16 03:23:27;;;;;;;0.40;0.20;;;15.50;99.90;;;;;;5071912;28;20476;-83
2023/09/16 03:25:53;;;;;;;0.40;0.20;;;15.30;99.90;;;;;;5067563;28;20172;-85
2023/09/16 03:28:19;;;;;;;0.40;0.20;;;15.30;99.90;;;;;;5069991;28;20482;-85
2023/09/16 03:30:44;;;;;;;0.40;0.20;;;15.40;99.90;;;;;;5072638;28;20449;-84
2023/09/16 03:33:10;;;;;;;0.40;0.30;;;15.50;99.90;;;;;;5074764;28;20258;-85
2023/09/16 03:35:36;;;;;;;0.40;0.20;;;15.40;99.90;;;;;;5067727;28;20216;-84
2023/09/16 03:38:02;;;;;;;0.40;0.20;;;15.30;99.90;;;;;;5068584;28;20266;-83
2023/09/16 03:40:28;;;;;;;0.40;0.30;;;15.30;99.90;;;;;;5070264;28;21416;-86
2023/09/16 03:42:55;;;;;;;0.40;0.20;;;15.30;99.90;;;;;;5070974;28;20197;-82
2023/09/16 03:45:21;;;;;;;0.40;0.20;;;15.20;99.90;;;;;;5072163;28;20442;-81
2023/09/16 03:47:46;;;;;;;0.40;0.33;;;15.30;99.90;;;;;;5072193;28;20450;-84
2023/09/16 03:50:12;;;;;;;0.87;0.70;;;15.10;99.90;;;;;;5073291;28;20188;-79
2023/09/16 03:52:37;;;;;;;0.40;0.20;;;15.00;99.90;;;;;;5071868;28;20216;-84
2023/09/16 03:55:03;;;;;;;0.40;0.20;;;15.10;99.90;;;;;;5070088;28;20421;-81
2023/09/16 03:57:29;;;;;;;0.40;0.20;;;15.10;99.90;;;;;;5070609;28;20207;-82
2023/09/16 03:59:54;;;;;;;0.40;0.20;;;15.10;99.90;;;;;;5075014;28;20248;-80
2023/09/16 04:02:20;;;;;;;0.40;0.27;;;15.30;99.90;;;;;;5079926;28;20196;-81
2023/09/16 04:04:45;;;;;;;0.40;0.23;;;15.10;99.90;;;;;;5080823;28;20237;-80
2023/09/16 04:07:11;;;;;;;0.40;0.30;;;15.20;99.90;;;;;;5075262;28;20189;-78
2023/09/16 04:09:36;;;;;;;0.40;0.20;;;15.00;99.90;;;;;;5075479;28;20191;-80
2023/09/16 04:12:02;;;;;;;0.40;0.20;;;14.90;99.90;;;;;;5074819;28;20405;-79
2023/09/16 04:14:28;;;;;;;0.40;0.20;;;14.80;99.90;;;;;;5085617;28;20258;-83
2023/09/16 04:16:53;;;;;;;0.40;0.30;;;14.70;99.90;;;;;;5076602;28;20442;-77
2023/09/16 04:19:19;;;;;;;0.40;0.20;;;14.80;99.90;;;;;;5087144;28;20182;-77
2023/09/16 04:21:51;;;;;;;0.40;0.30;;;15.00;99.90;;;;;;5086166;28;20235;-80
2023/09/16 04:24:16;;;;;;;0.40;0.20;;;15.10;99.90;;;;;;5079810;28;20276;-80
2023/09/16 04:26:42;;;;;;;0.40;0.20;;;15.00;99.90;;;;;;5076845;28;20442;-83
2023/09/16 04:29:07;;;;;;;0.40;0.20;;;14.80;99.90;;;;;;5076823;28;20177;-81
2023/09/16 04:31:33;;;;;;;0.40;0.20;;;14.70;99.90;;;;;;5077286;28;20322;-84
2023/09/16 04:33:58;;;;;;;0.40;0.20;;;14.60;99.90;;;;;;5076367;28;20237;-86
2023/09/16 04:36:24;;;;;;;0.40;0.20;;;14.50;99.90;;;;;;5072927;28;20212;-85
2023/09/16 04:38:49;;;;;;;0.40;0.30;;;14.40;99.90;;;;;;5088276;28;20710;-83
2023/09/16 04:41:15;;;;;;;0.40;0.20;;;14.30;99.90;;;;;;5079476;28;20188;-84
2023/09/16 04:43:43;;;;;;;0.40;0.20;;;14.30;99.90;;;;;;5079604;28;20180;-79
2023/09/16 04:46:08;;;;;;;0.40;0.20;;;14.30;99.90;;;;;;5071351;28;20741;-81
2023/09/16 04:48:34;;;;;;;0.40;0.30;;;14.30;99.90;;;;;;5070196;28;20478;-79
2023/09/16 04:50:59;;;;;;;0.40;0.20;;;14.20;99.90;;;;;;5079410;28;20202;-85
2023/09/16 04:53:25;;;;;;;0.40;0.20;;;14.20;99.90;;;;;;5091488;28;20200;-85
2023/09/16 04:55:59;;;;;;;0.40;0.20;;;14.20;99.90;;;;;;5072272;28;20208;-78
2023/09/16 04:58:25;;;;;;;0.40;0.20;;;14.40;99.90;;;;;;5080532;28;20685;-83
2023/09/16 05:00:51;;;;;;;0.40;0.20;;;14.40;99.90;;;;;;5073675;28;20460;-78
2023/09/16 05:03:18;;;;;;;0.40;0.30;;;14.30;99.90;;;;;;5074327;28;20183;-83
2023/09/16 05:05:46;;;;;;;0.40;0.20;;;14.20;99.90;;;;;;5077524;28;20545;-81
2023/09/16 05:08:11;;;;;;;0.40;0.20;;;14.10;99.90;;;;;;5080286;28;20445;-80
2023/09/16 05:10:37;;;;;;;0.40;0.20;;;14.10;99.90;;;;;;5082499;28;20422;-79
2023/09/16 05:13:03;;;;;;;0.40;0.20;;;14.20;99.90;;;;;;5080817;28;20232;-84
2023/09/16 05:15:28;;;;;;;0.90;0.67;;;14.20;99.90;;;;;;5081738;28;20208;-80
2023/09/16 05:17:54;;;;;;;0.40;0.20;;;14.30;99.90;;;;;;5075002;28;20527;-86
2023/09/16 05:20:20;;;;;;;0.93;0.93;;;14.20;99.90;;;;;;5077180;28;20215;-84
2023/09/16 05:22:49;;;;;;;0.40;0.20;;;14.20;99.90;;;;;;5082448;28;20208;-85
2023/09/16 05:25:16;;;;;;;0.40;0.20;;;14.20;99.90;;;;;;5080545;28;20184;-78
2023/09/16 05:27:41;;;;;;;0.40;0.40;;;14.20;99.90;;;;;;5078003;28;20458;-82
2023/09/16 05:30:07;;;;;;;0.40;0.30;;;14.60;99.90;;;;;;5082187;28;20443;-77
2023/09/16 05:32:33;;;;;;;0.40;0.20;;;15.40;99.90;;;;;;5080651;28;20212;-80
2023/09/16 05:34:59;;;;;;;0.40;0.20;;;16.10;99.90;;;;;;5077583;28;20488;-84
2023/09/16 05:37:24;;;;;;;0.40;0.30;;;17.10;99.90;;;;;;5080181;28;20840;-83
2023/09/16 05:39:50;;;;;;;0.40;0.20;;;18.30;99.90;;;;;;5074871;28;20749;-85
2023/09/16 05:42:15;;;;;;;0.40;0.30;;;19.30;99.90;;;;;;5073627;28;20208;-82
2023/09/16 05:44:41;;;;;;;0.40;0.20;;;20.00;99.90;;;;;;5076415;28;20202;-81
2023/09/16 05:47:06;;;;;;;0.40;0.30;;;20.40;99.90;;;;;;5078279;28;20196;-81
2023/09/16 05:49:34;;;;;;;0.40;0.20;;;21.40;99.90;;;;;;5079455;28;20188;-81
2023/09/16 05:52:00;;;;;;;0.40;0.30;;;22.90;99.90;;;;;;5085976;28;20192;-81
2023/09/16 05:54:26;;;;;;;0.40;0.30;;;23.90;99.90;;;;;;5086396;28;20507;-79
2023/09/16 05:56:52;;;;;;;0.40;0.30;;;24.60;99.90;;;;;;5090317;28;20184;-80
2023/09/16 05:59:19;;;;;;;0.40;0.20;;;24.50;99.90;;;;;;5086924;28;20448;-79
2023/09/16 06:01:44;;;;;;;0.40;0.20;;;24.70;99.90;;;;;;5084935;28;20481;-79
2023/09/16 06:04:10;;;;;;;0.40;0.20;;;24.60;99.90;;;;;;5088415;28;20443;-78
2023/09/16 06:06:36;;;;;;;0.40;0.30;;;24.80;99.90;;;;;;5085786;28;20203;-80
2023/09/16 06:09:16;;;;;;;0.40;0.30;;;25.00;99.90;;;;;;5084622;28;20225;-83
2023/09/16 06:11:41;;;;;;;0.50;0.40;;;26.30;99.90;;;;;;5086935;28;20451;-81
2023/09/16 06:14:07;;;;;;;0.40;0.30;;;27.20;99.90;;;;;;5081245;28;20557;-82
2023/09/16 06:16:33;;;;;;;0.90;0.70;;;27.60;99.90;;;;;;5072597;28;20233;-79
2023/09/16 06:18:58;;;;;;;0.40;0.30;;;28.10;99.90;;;;;;5073969;28;20192;-82
2023/09/16 06:21:24;;;;;;;0.40;0.30;;;29.00;99.90;;;;;;5075469;28;20330;-80
2023/09/16 06:23:50;;;;;;;0.40;0.30;;;;;;;;;;5086158;28;20260;-80
2023/09/16 06:26:15;;;;;;;0.40;0.30;;;29.60;96.10;;;;;;5072416;28;20181;-84
2023/09/16 06:28:42;;;;;;;0.40;0.30;;;29.30;96.80;;;;;;5075698;28;20470;-82
2023/09/16 06:31:08;;;;;;;0.40;0.30;;;29.60;97.20;;;;;;5084244;28;20286;-77
2023/09/16 06:33:34;;;;;;;0.40;0.30;;;30.90;95.00;;;;;;5079080;28;20445;-79
2023/09/16 06:36:00;;;;;;;0.50;0.30;;;32.10;92.40;;;;;;5071485;28;20200;-79
2023/09/16 06:38:27;;;;;;;0.47;0.30;;;31.90;91.00;;;;;;5074435;28;20174;-81
2023/09/16 06:40:52;;;;;;;0.50;0.37;;;32.80;88.00;;;;;;5078781;28;20174;-85
2023/09/16 06:43:18;;;;;;;0.50;0.33;;;32.60;84.30;;;;;;5076884;28;20480;-83
2023/09/16 06:45:46;;;;;;;0.50;0.40;;;32.80;84.70;;;;;;5077285;28;20195;-82
2023/09/16 06:48:11;;;;;;;0.43;0.43;;;32.50;84.60;;;;;;5070245;28;20183;-81
2023/09/16 06:50:38;;;;;;;0.50;0.40;;;32.30;85.70;;;;;;5078418;28;20433;-77
2023/09/16 06:53:03;;;;;;;0.50;0.50;;;31.60;82.80;;;;;;5071594;28;20215;-81
2023/09/16 06:55:29;;;;;;;4.40;1.40;;;31.80;86.00;;;;;;5070042;28;20501;-83
2023/09/16 06:57:54;;;;;;;0.80;0.60;;;31.50;87.30;;;;;;5067004;28;20558;-81
2023/09/16 07:00:20;;;;;;;0.50;0.50;;;31.80;86.70;;;;;;5069228;28;20206;-80
2023/09/16 07:02:45;;;;;;;0.80;0.70;;;30.80;88.50;;;;;;5073981;28;20221;-80
2023/09/16 07:05:11;;;;;;;0.50;0.30;;;29.80;90.40;;;;;;5072301;28;20205;-83
2023/09/16 07:07:37;;;;;;;0.40;0.30;;;29.90;92.50;;;;;;5062906;28;20491;-84
2023/09/16 07:10:03;;;;;;;0.50;0.40;;;30.10;91.80;;;;;;5059892;28;20203;-85
2023/09/16 07:12:29;;;;;;;0.50;0.30;;;30.90;91.50;;;;;;5062991;28;20471;-86
2023/09/16 07:14:54;;;;;;;0.40;0.30;;;31.00;91.30;;;;;;5049313;28;20463;-85
2023/09/16 07:17:20;;;;;;;0.40;0.30;;;30.90;90.90;;;;;;5051946;28;20210;-84
2023/09/16 07:19:45;;;;;;;0.50;0.40;;;30.90;91.60;;;;;;5062125;28;20198;-82
2023/09/16 07:22:11;;;;;;;0.50;0.40;;;31.70;91.10;;;;;;5060034;28;20205;-84
2023/09/16 07:24:37;;;;;;;0.50;0.40;;;31.90;90.60;;;;;;5063795;28;20240;-79
2023/09/16 07:27:03;;;;;;;0.50;0.40;;;32.20;90.00;;;;;;5075046;28;20779;-81
2023/09/16 07:29:30;;;;;;;0.50;0.40;;;31.70;88.90;;;;;;5075906;28;20458;-84
2023/09/16 07:31:55;;;;;;;0.60;0.60;;;32.20;90.40;;;;;;5066914;28;20576;-81
2023/09/16 07:34:22;;;;;;;0.67;0.67;;;33.40;88.60;;;;;;5077151;28;20434;-86
2023/09/16 07:36:48;;;;;;;0.60;0.60;;;33.90;84.40;;;;;;5077621;28;20189;-79
2023/09/16 07:39:14;;;;;;;0.50;0.50;;;;;;;;;;5071590;28;20462;-80
2023/09/16 07:41:41;;;;;;;0.70;0.70;;;32.90;85.10;;;;;;5073367;28;20451;-79
2023/09/16 07:44:07;;;;;;;0.73;0.73;;;32.70;86.80;;;;;;5069939;28;20436;-81
2023/09/16 07:46:34;;;;;;;0.50;0.50;;;32.60;87.00;;;;;;5079485;28;20487;-83
2023/09/16 07:48:59;;;;;;;0.60;0.60;;;32.80;87.00;;;;;;5081236;28;20170;-78
2023/09/16 07:51:25;;;;;;;1.00;1.00;;;34.20;83.80;;;;;;5073782;28;20527;-81
2023/09/16 07:53:51;;;;;;;1.00;1.00;;;36.10;79.20;;;;;;5076287;28;20181;-79
2023/09/16 07:56:20;;;;;;;1.53;1.53;;;37.30;74.50;;;;;;5081422;28;20214;-84
2023/09/16 07:58:46;;;;;;;2.00;1.90;;;;;;;;;;5085048;28;20527;-81
2023/09/16 08:01:12;;;;;;;2.27;2.17;;;38.80;66.00;;;;;;5082233;28;20450;-82
2023/09/16 08:03:38;;;;;;;2.53;2.43;;;39.40;63.60;;;;;;5085058;28;20490;-81
2023/09/16 08:06:04;;;;;;;3.17;3.07;;;;;;;;;;5095464;28;20256;-83
2023/09/16 08:08:30;;;;;;;4.47;4.37;;;40.40;58.80;;;;;;5087642;28;20445;-80
2023/09/16 08:10:55;;;;;;;4.90;4.80;;;40.20;57.20;;;;;;5079590;28;20434;-86
2023/09/16 08:13:21;;;;;;;4.33;4.23;;;39.30;57.50;;;;;;5081239;28;20176;-82
2023/09/16 08:15:47;;;;;;;4.07;3.97;;;;;;;;;;5079411;28;20253;-80
2023/09/16 08:18:13;;;;;;;4.43;4.33;;;37.40;59.90;;;;;;5076960;28;20445;-82
2023/09/16 08:20:38;;;;;;;4.00;3.90;;;37.00;61.90;;;;;;5076319;28;20964;-85
2023/09/16 08:23:04;;;;;;;2.90;2.80;;;;;;;;;;5076044;28;20209;-80
2023/09/16 08:25:30;;;;;;;3.10;3.00;;;36.00;63.90;;;;;;5074828;28;20234;-81
2023/09/16 08:27:56;;;;;;;3.27;3.17;;;35.30;65.20;;;;;;5077909;28;20968;-86
2023/09/16 08:30:21;;;;;;;3.23;3.13;;;35.30;65.50;;;;;;5075610;28;20187;-84
2023/09/16 08:32:48;;;;;;;3.40;3.30;;;35.40;64.60;;;;;;5076073;28;20225;-85
2023/09/16 08:35:13;;;;;;;3.10;3.00;;;34.50;66.00;;;;;;5068816;28;20519;-82
2023/09/16 08:37:39;;;;;;;3.07;2.97;;;34.20;66.40;;;;;;5069709;28;20505;-81
2023/09/16 08:40:05;;;;;;;2.90;2.80;;;33.90;67.90;;;;;;5073707;28;20538;-81
2023/09/16 08:42:38;;;;;;;2.47;2.37;;;32.70;70.50;;;;;;5076965;28;20232;-82
2023/09/16 08:45:11;;;;;;;2.10;2.00;;;32.50;72.80;;;;;;5064846;28;20442;-80
2023/09/16 08:47:45;;;;;;;1.90;1.80;;;32.90;74.50;;;;;;5068016;28;20446;-81
2023/09/16 08:50:11;;;;;;;1.97;1.87;;;33.40;73.00;;;;;;5072651;28;20610;-78
2023/09/16 08:52:46;;;;;;;1.50;1.50;;;33.40;73.50;;;;;;5072512;28;20451;-79
2023/09/16 08:55:13;;;;;;;1.40;1.40;;;33.50;74.60;;;;;;5072347;28;20967;-83
2023/09/16 08:57:44;;;;;;;1.90;1.80;;;33.50;73.40;;;;;;5089118;28;20475;-83
2023/09/16 09:00:10;;;;;;;1.50;1.50;;;33.50;73.10;;;;;;5071315;28;20489;-81
2023/09/16 09:02:36;;;;;;;1.80;1.70;;;33.60;73.30;;;;;;5074103;28;20992;-81
2023/09/16 09:05:06;;;;;;;1.90;1.80;;;33.80;73.70;;;;;;5068072;28;20454;-81
2023/09/16 09:07:34;;;;;;;2.27;2.17;;;34.40;72.60;;;;;;5061865;28;20434;-81
2023/09/16 09:10:00;;;;;;;2.57;2.47;;;34.90;70.20;;;;;;5065594;28;20448;-82
2023/09/16 09:12:25;;;;;;;2.57;2.47;;;35.10;69.40;;;;;;5066767;28;20459;-83
2023/09/16 09:14:52;;;;;;;2.80;2.70;;;34.90;69.20;;;;;;5069800;28;20214;-86
2023/09/16 09:17:18;;;;;;;2.40;2.30;;;34.80;69.90;;;;;;5079714;28;20221;-84
2023/09/16 09:19:44;;;;;;;2.70;2.60;;;34.60;70.10;;;;;;5068605;28;20451;-83
2023/09/16 09:22:10;;;;;;;2.70;2.60;;;35.30;67.10;;;;;;5063717;28;20818;-86
2023/09/16 09:24:36;;;;;;;2.87;2.77;;;35.20;67.70;;;;;;5064504;28;20461;-85
2023/09/16 09:27:02;;;;;;;3.10;3.00;;;;;;;;;;5078306;28;21112;-86
2023/09/16 09:29:27;;;;;;;2.83;2.73;;;35.10;66.80;;;;;;5069923;28;20504;-87
2023/09/16 09:31:54;;;;;;;3.13;3.03;;;35.10;67.30;;;;;;5068861;28;20567;-84
2023/09/16 09:34:20;;;;;;;3.03;2.93;;;35.30;67.40;;;;;;5062420;28;20888;-87
2023/09/16 09:36:46;;;;;;;3.17;3.07;;;35.40;66.40;;;;;;5064104;28;20431;-85
2023/09/16 09:39:14;;;;;;;2.87;2.77;;;34.90;67.10;;;;;;5062933;28;20189;-86
2023/09/16 09:41:49;;;;;;;2.90;2.80;;;34.90;68.50;;;;;;5105639;22;20525;-85
2023/09/16 09:44:15;;;;;;;2.77;2.67;;;34.80;68.20;;;;;;4985046;28;20461;-85
2023/09/16 09:46:41;;;;;;;2.40;2.30;;;34.20;69.60;;;;;;4983782;28;21362;-86
2023/09/16 09:49:08;;;;;;;2.47;2.37;;;33.90;71.00;;;;;;4984551;28;20197;-86
2023/09/16 09:51:34;;;;;;;2.17;2.07;;;;;;;;;;4986937;28;20473;-86
2023/09/16 09:54:00;;;;;;;1.63;1.63;;;32.80;72.50;;;;;;4986704;28;22256;-85
2023/09/16 09:56:26;;;;;;;1.60;1.60;;;32.50;74.70;;;;;;4984130;28;20546;-86
2023/09/16 09:58:51;;;;;;;1.20;1.20;;;32.10;76.10;;;;;;5002062;28;20206;-85
2023/09/16 10:01:17;;;;;;;1.10;1.10;;;31.80;78.30;;;;;;4984736;28;20554;-84
2023/09/16 10:03:49;;;;;;;0.87;0.87;;;31.30;79.00;;;;;;4985102;28;20192;-86
2023/09/16 10:06:16;;;;;;;0.60;0.60;;;30.50;81.80;;;;;;5002024;28;20561;-84
2023/09/16 10:08:43;;;;;;;0.50;0.50;;;29.50;86.00;;;;;;4987966;28;20980;-87
2023/09/16 10:11:09;;;;;;;0.50;0.40;;;28.80;90.40;;;;;;4985809;28;20431;-89
2023/09/16 10:13:36;;;;;;;0.47;0.40;;;28.40;91.20;;;;;;4985583;28;20440;-87
2023/09/16 10:16:02;;;;;;;0.50;0.40;;;27.90;93.40;;;;;;4983004;28;21377;-87
2023/09/16 10:18:28;;;;;;;0.50;0.50;;;27.70;94.60;;;;;;4984574;28;20473;-87
2023/09/16 10:20:55;;;;;;;0.50;0.30;;;27.50;95.40;;;;;;4982803;28;20566;-84
2023/09/16 10:23:22;;;;;;;0.50;0.30;;;28.00;96.70;;;;;;4980203;28;20431;-85
2023/09/16 10:25:48;;;;;;;0.50;0.30;;;27.30;97.70;;;;;;4980744;28;20430;-88
2023/09/16 10:28:15;;;;;;;0.50;0.30;;;27.30;98.00;;;;;;4978284;28;20477;-86
2023/09/16 10:30:41;;;;;;;0.50;0.30;;;27.30;97.40;;;;;;4983582;28;20445;-86
2023/09/16 10:33:08;;;;;;;0.47;0.30;;;27.30;96.80;;;;;;5000344;28;20438;-85
2023/09/16 10:35:37;;;;;;;0.50;0.30;;;27.30;97.00;;;;;;4988941;28;20464;-86
2023/09/16 10:38:05;;;;;;;0.47;0.30;;;28.00;97.80;;;;;;4991099;28;20447;-90
2023/09/16 10:40:31;;;;;;;0.43;0.30;;;28.50;98.40;;;;;;4985177;28;20434;-87
2023/09/16 10:42:59;;;;;;;0.50;0.30;;;27.10;99.40;;;;;;4983075;28;20441;-88
2023/09/16 10:45:26;;;;;;;0.50;0.30;;;28.40;98.80;;;;;;4988965;28;20892;-84
2023/09/16 10:47:55;;;;;;;0.50;0.30;;;27.10;97.10;;;;;;4985410;28;20576;-87
2023/09/16 10:50:24;;;;;;;0.50;0.30;;;28.30;97.50;;;;;;4984814;28;20440;-87
2023/09/16 10:53:10;;;;;;;0.57;0.50;;;29.40;98.20;;;;;;4988468;28;20448;-87
2023/09/16 10:56:01;;;;;;;0.50;0.30;;;27.70;97.90;;;;;;4985706;28;21200;-89
2023/09/16 10:58:41;;;;;;;0.50;0.30;;;27.90;96.80;;;;;;4999565;28;20469;-86
2023/09/16 11:01:08;;;;;;;0.50;0.30;;;28.00;94.60;;;;;;4984648;28;20540;-86
2023/09/16 11:03:39;;;;;;;0.47;0.30;;;28.10;94.10;;;;;;4983093;28;20820;-87
2023/09/16 11:06:05;;;;;;;0.50;0.30;;;;;;;;;;4991502;28;20493;-85
2023/09/16 11:08:31;;;;;;;0.50;0.50;;;28.10;92.80;;;;;;4988672;28;20437;-86
2023/09/16 11:10:58;;;;;;;0.50;0.30;;;28.10;93.20;;;;;;4983609;28;20528;-85
2023/09/16 11:13:25;;;;;;;0.50;0.30;;;28.20;93.10;;;;;;4982220;28;20221;-85
2023/09/16 11:15:51;;;;;;;0.80;0.60;;;28.30;91.80;;;;;;4979135;28;21189;-86
2023/09/16 11:18:18;;;;;;;0.50;0.30;;;28.10;91.70;;;;;;4984498;28;20549;-85
2023/09/16 11:20:44;;;;;;;0.50;0.40;;;28.20;88.80;;;;;;4987879;28;20238;-85
2023/09/16 11:23:10;;;;;;;0.60;0.40;;;28.30;90.50;;;;;;4981914;28;20450;-85
2023/09/16 11:25:37;;;;;;;0.50;0.40;;;28.50;88.90;;;;;;4985471;28;20553;-85
2023/09/16 11:28:18;;;;;;;0.50;0.30;;;28.40;90.30;;;;;;4987456;28;20472;-87
2023/09/16 11:31:01;;;;;;;0.50;0.30;;;28.40;91.30;;;;;;4996390;28;20486;-88
2023/09/16 11:33:33;;;;;;;0.50;0.30;;;28.40;92.30;;;;;;4994067;28;20456;-84
2023/09/16 11:36:12;;;;;;;0.50;0.30;;;28.60;92.60;;;;;;4991680;28;20493;-84
2023/09/16 11:38:39;;;;;;;0.60;0.50;;;28.60;93.10;;;;;;5008313;28;20454;-85
2023/09/16 11:41:11;;;;;;;0.50;0.30;;;28.60;93.60;;;;;;4992237;28;21942;-85
2023/09/16 11:43:38;;;;;;;0.50;0.30;;;28.70;92.90;;;;;;4996793;28;20456;-84
2023/09/16 11:46:08;;;;;;;0.50;0.40;;;29.20;92.10;;;;;;4994672;28;20446;-85
2023/09/16 11:48:47;;;;;;;0.60;0.60;;;29.20;92.40;;;;;;5006959;28;20447;-85
2023/09/16 11:51:16;;;;;;;0.50;0.40;;;29.50;90.10;;;;;;5008289;28;20435;-83
2023/09/16 11:53:42;;;;;;;0.50;0.40;;;29.40;87.20;;;;;;4994244;28;20458;-86
2023/09/16 11:56:08;;;;;;;0.50;0.50;;;29.40;87.80;;;;;;4992331;28;20458;-85
2023/09/16 11:58:34;;;;;;;0.50;0.40;;;;;;;;;;4995206;28;20265;-84
2023/09/16 12:01:01;;;;;;;0.50;0.40;;;28.80;90.10;;;;;;4993876;28;20191;-85
2023/09/16 12:03:27;;;;;;;0.50;0.50;;;28.80;90.50;;;;;;4995407;28;20442;-85
2023/09/16 12:05:54;;;;;;;0.50;0.40;;;29.10;89.10;;;;;;4997463;28;20461;-85
2023/09/16 12:08:20;;;;;;;0.50;0.50;;;29.10;89.80;;;;;;4990680;28;20202;-86
2023/09/16 12:10:46;;;;;;;0.50;0.40;;;29.10;89.40;;;;;;4989069;28;20457;-85
2023/09/16 12:13:11;;;;;;;0.50;0.40;;;28.90;90.00;;;;;;5006722;28;20483;-85
2023/09/16 12:15:37;;;;;;;0.50;0.40;;;28.40;91.50;;;;;;4994552;28;20235;-83
2023/09/16 12:18:03;;;;;;;0.50;0.47;;;28.50;91.50;;;;;;4989116;28;20238;-82
2023/09/16 12:20:31;;;;;;;0.50;0.50;;;28.90;90.40;;;;;;4989502;28;20193;-88
2023/09/16 12:22:58;;;;;;;0.50;0.40;;;28.70;90.70;;;;;;4988373;28;21385;-82
2023/09/16 12:25:26;;;;;;;1.00;0.60;;;28.90;87.90;;;;;;4987621;28;20452;-86
2023/09/16 12:27:52;;;;;;;0.50;0.50;;;;;;;;;;4992197;28;21130;-84
2023/09/16 12:30:18;;;;;;;0.50;0.47;;;29.40;88.40;;;;;;5001543;28;20460;-87
2023/09/16 12:32:50;;;;;;;0.53;0.53;;;29.60;84.50;;;;;;4990576;28;20461;-86
2023/09/16 12:35:16;;;;;;;0.50;0.50;;;;;;;;;;4996488;28;20214;-87
2023/09/16 12:37:42;;;;;;;0.50;0.50;;;29.30;84.00;;;;;;4983933;28;20494;-83
2023/09/16 12:40:08;;;;;;;0.70;0.70;;;29.40;84.10;;;;;;4981282;28;20994;-83
2023/09/16 12:42:39;;;;;;;0.60;0.60;;;29.50;79.60;;;;;;4980860;28;20454;-82
2023/09/16 12:45:06;;;;;;;0.60;0.60;;;29.60;78.40;;;;;;4982034;28;21026;-83
2023/09/16 12:47:31;;;;;;;0.70;0.70;;;29.70;78.90;;;;;;4979842;28;21152;-85
2023/09/16 12:49:57;;;;;;;0.60;0.60;;;29.60;78.90;;;;;;4984337;28;20485;-82